Flight Briefing for CPX673

Departure Arrival
Grand Bahama International Airport (MYGF)
Click to view FAA NOTAMS
Lynden Pindling International Airport (MYNN)
Click to view FAA NOTAMS
Departure Time Arrival Time
N/A N/A
Aircraft Distance
SF340AF 113nm
Departure METAR Arrival METAR
MYGF 252300Z 12008KT 9999 FEW030 25/21 A3003 MYNN 252300Z 09006KT 9999 FEW020 25/21 A3005
Suggested Route
ZFP BR65V ZQA


View recent IFR Routes data
Notes



Charts and Procedures

Charts for MYGF
No chart available
Charts for MYNN
No chart available

Windy.com Weather Map